Time;durP1;ratioP1;P1;durP2;ratioP2;P2;SDS_P1;SDS_P2;PMS_P1;PMS_P2;Temp;Humidity;BMP_temperature;BMP_pressure;BME280_temperature;BME280_humidity;BME280_pressure;Samples;Min_cycle;Max_cycle;Signal;HPM_P1;HPM_P2
2023/11/24 00:01:58;;;;;;;;;;;103.10;2227.20;;;;;;4987317;28;20105;-70
2023/11/24 00:04:24;;;;;;;;;;;103.20;2227.20;;;;;;4993556;28;19956;-72
2023/11/24 00:06:51;;;;;;;;;;;128.00;2252.80;;;;;;4987536;28;19939;-70
2023/11/24 00:09:17;;;;;;;;;;;128.10;2252.80;;;;;;4991836;28;20344;-73
2023/11/24 00:11:43;;;;;;;;;;;128.10;2252.80;;;;;;4987237;28;20083;-72
2023/11/24 00:14:08;;;;;;;;;;;128.00;2252.80;;;;;;4988276;28;19913;-71
2023/11/24 00:16:38;;;;;;;;;;;103.30;2227.20;;;;;;4986393;28;20279;-71
2023/11/24 00:19:07;;;;;;;;;;;103.20;2227.20;;;;;;4985246;28;19969;-72
2023/11/24 00:21:33;;;;;;;;;;;103.10;2227.20;;;;;;4991332;28;20368;-71
2023/11/24 00:24:04;;;;;;;;;;;103.10;2227.20;;;;;;4969713;28;19956;-72
2023/11/24 00:26:30;;;;;;;;;;;103.20;2227.20;;;;;;4990301;28;19937;-72
2023/11/24 00:28:55;;;;;;;;;;;103.30;2227.20;;;;;;4985831;28;19906;-70
2023/11/24 00:31:24;;;;;;;;;;;103.20;2227.20;;;;;;4987572;28;20358;-70
2023/11/24 00:33:50;;;;;;;;;;;102.90;2227.20;;;;;;4989669;28;20368;-71
2023/11/24 00:36:16;;;;;;;;;;;102.70;2227.20;;;;;;4987177;28;19912;-71
2023/11/24 00:38:42;;;;;;;;;;;102.60;2227.20;;;;;;4988311;28;19928;-70
2023/11/24 00:41:13;;;;;;;;;;;102.50;2227.20;;;;;;4984039;28;19914;-71
2023/11/24 00:43:41;;;;;;;;;;;77.70;2227.20;;;;;;4986625;28;19924;-70
2023/11/24 00:46:08;;;;;;;;;;;77.50;2227.20;;;;;;4991666;28;19917;-71
2023/11/24 00:48:35;;;;;;;;;;;77.50;2227.20;;;;;;4989003;28;20264;-70
2023/11/24 00:51:00;;;;;;;;;;;77.50;2227.20;;;;;;4987272;28;19910;-70
2023/11/24 00:53:26;;;;;;;;;;;77.60;2227.20;;;;;;4991592;28;19941;-71
2023/11/24 00:55:52;;;;;;;;;;;77.70;2227.20;;;;;;4993001;28;19910;-70
2023/11/24 00:58:17;;;;;;;;;;;102.40;2227.20;;;;;;4993416;28;20004;-71
2023/11/24 01:00:43;;;;;;;;;;;102.40;2227.20;;;;;;4991431;28;20387;-71
2023/11/24 01:03:08;;;;;;;;;;;102.50;2227.20;;;;;;4971618;28;19912;-71
2023/11/24 01:05:34;;;;;;;;;;;102.80;2227.20;;;;;;4991884;28;19906;-72
2023/11/24 01:08:00;;;;;;;;;;;103.00;2227.20;;;;;;4993746;28;20312;-70
2023/11/24 01:10:26;;;;;;;;;;;103.10;2227.20;;;;;;4987321;28;20356;-71
2023/11/24 01:12:52;;;;;;;;;;;103.10;2227.20;;;;;;4996322;28;19912;-70
2023/11/24 01:15:17;;;;;;;;;;;103.20;2227.20;;;;;;4996883;28;19906;-71
2023/11/24 01:17:44;;;;;;;;;;;103.10;2227.20;;;;;;4996345;28;19905;-73
2023/11/24 01:20:10;;;;;;;;;;;102.70;2227.20;;;;;;4996354;28;20291;-70
2023/11/24 01:22:36;;;;;;;;;;;102.40;2227.20;;;;;;4996609;28;19920;-71
2023/11/24 01:25:02;;;;;;;;;;;102.60;2227.20;;;;;;4996597;28;19906;-71
2023/11/24 01:27:27;;;;;;;;;;;102.80;2227.20;;;;;;4996616;28;19967;-72
2023/11/24 01:29:53;;;;;;;;;;;102.90;2227.20;;;;;;4996522;28;19912;-71
2023/11/24 01:32:18;;;;;;;;;;;102.80;2227.20;;;;;;4996463;28;19909;-71
2023/11/24 01:34:44;;;;;;;;;;;102.70;2227.20;;;;;;4996561;28;19917;-71
2023/11/24 01:37:09;;;;;;;;;;;102.60;2227.20;;;;;;4996416;28;20407;-72
2023/11/24 01:39:36;;;;;;;;;;;102.50;2227.20;;;;;;4996168;28;19972;-72
2023/11/24 01:42:03;;;;;;;;;;;102.60;2227.20;;;;;;4996341;28;19941;-73
2023/11/24 01:44:28;;;;;;;;;;;102.70;2227.20;;;;;;4996340;28;20352;-71
2023/11/24 01:46:54;;;;;;;;;;;102.80;2227.20;;;;;;4996142;28;19912;-71
2023/11/24 01:49:20;;;;;;;;;;;102.60;2227.20;;;;;;4996332;28;19913;-71
2023/11/24 01:51:47;;;;;;;;;;;102.80;2227.20;;;;;;4996082;28;19914;-71
2023/11/24 01:54:13;;;;;;;;;;;102.50;2227.20;;;;;;4996107;28;19906;-71
2023/11/24 01:56:39;;;;;;;;;;;102.40;2227.20;;;;;;4996074;28;19952;-70
2023/11/24 01:59:06;;;;;;;;;;;77.60;2227.20;;;;;;4996003;28;19905;-70
2023/11/24 02:01:33;;;;;;;;;;;77.50;2227.20;;;;;;4995756;28;19918;-71
2023/11/24 02:04:00;;;;;;;;;;;77.40;2227.20;;;;;;4996003;28;19905;-71
2023/11/24 02:06:26;;;;;;;;;;;77.40;2227.20;;;;;;4994956;28;20399;-72
2023/11/24 02:08:51;;;;;;;;;;;77.60;2227.20;;;;;;4996059;28;19948;-71
2023/11/24 02:11:17;;;;;;;;;;;77.70;2227.20;;;;;;4995764;28;20020;-71
2023/11/24 02:13:46;;;;;;;;;;;77.70;2227.20;;;;;;4995729;28;19994;-72
2023/11/24 02:16:12;;;;;;;;;;;77.60;2227.20;;;;;;4995868;28;19913;-71
2023/11/24 02:18:38;;;;;;;;;;;77.60;2227.20;;;;;;4995742;28;19913;-72
2023/11/24 02:21:04;;;;;;;;;;;77.70;2227.20;;;;;;4995506;28;19917;-71
2023/11/24 02:23:30;;;;;;;;;;;77.50;2227.20;;;;;;4995453;28;19916;-71
2023/11/24 02:25:55;;;;;;;;;;;77.40;2227.20;;;;;;4995341;28;19910;-72
2023/11/24 02:28:21;;;;;;;;;;;77.40;2227.20;;;;;;4995456;28;20374;-71
2023/11/24 02:30:47;;;;;;;;;;;77.50;2227.20;;;;;;4995393;28;20287;-71
2023/11/24 02:33:13;;;;;;;;;;;77.40;2227.20;;;;;;4977158;28;19905;-73
2023/11/24 02:35:39;;;;;;;;;;;77.40;2227.20;;;;;;4995344;28;19910;-71
2023/11/24 02:38:06;;;;;;;;;;;77.40;2227.20;;;;;;4995372;28;19906;-71
2023/11/24 02:40:32;;;;;;;;;;;77.20;2227.20;;;;;;4995326;28;19913;-71
2023/11/24 02:42:59;;;;;;;;;;;77.10;2227.20;;;;;;4995268;28;19906;-73
2023/11/24 02:45:24;;;;;;;;;;;77.10;2227.20;;;;;;4995071;28;19912;-71
2023/11/24 02:47:50;;;;;;;;;;;77.20;2227.20;;;;;;4994889;28;20288;-72
2023/11/24 02:50:16;;;;;;;;;;;77.40;2227.20;;;;;;4995008;28;19910;-72
2023/11/24 02:52:41;;;;;;;;;;;77.50;2227.20;;;;;;4994966;28;19917;-72
2023/11/24 02:55:08;;;;;;;;;;;77.60;2227.20;;;;;;4995026;28;19977;-73
2023/11/24 02:57:33;;;;;;;;;;;77.30;2227.20;;;;;;4994838;28;19909;-71
2023/11/24 02:59:59;;;;;;;;;;;77.20;2227.20;;;;;;4994754;28;20297;-72
2023/11/24 03:02:25;;;;;;;;;;;77.10;2227.20;;;;;;4994570;28;19909;-71
2023/11/24 03:04:51;;;;;;;;;;;76.80;2227.20;;;;;;4994812;28;20395;-71
2023/11/24 03:07:17;;;;;;;;;;;52.00;2227.20;;;;;;4994765;28;20005;-72
2023/11/24 03:09:42;;;;;;;;;;;52.00;2227.20;;;;;;4994603;28;19906;-71
2023/11/24 03:12:08;;;;;;;;;;;52.10;2227.20;;;;;;4994792;28;19905;-71
2023/11/24 03:14:34;;;;;;;;;;;52.00;2227.20;;;;;;4994568;28;19944;-73
2023/11/24 03:17:01;;;;;;;;;;;52.00;2227.20;;;;;;4994204;28;19912;-71
2023/11/24 03:19:27;;;;;;;;;;;52.10;2227.20;;;;;;4994468;28;19949;-71
2023/11/24 03:21:52;;;;;;;;;;;52.10;2227.20;;;;;;4994270;28;20008;-71
2023/11/24 03:24:18;;;;;;;;;;;76.80;2227.20;;;;;;4994654;28;19963;-72
2023/11/24 03:26:44;;;;;;;;;;;76.90;2227.20;;;;;;4994459;28;19916;-71
2023/11/24 03:29:09;;;;;;;;;;;77.00;2227.20;;;;;;4994380;28;19944;-72
2023/11/24 03:31:36;;;;;;;;;;;77.20;2227.20;;;;;;4994395;28;19936;-71
2023/11/24 03:34:01;;;;;;;;;;;77.20;2227.20;;;;;;4994252;28;19913;-72
2023/11/24 03:36:27;;;;;;;;;;;77.30;2227.20;;;;;;4994384;28;19909;-73
2023/11/24 03:38:53;;;;;;;;;;;77.50;2227.20;;;;;;4994050;28;19905;-70
2023/11/24 03:41:19;;;;;;;;;;;102.40;2227.20;;;;;;4993680;28;19960;-72
2023/11/24 03:43:44;;;;;;;;;;;102.40;2227.20;;;;;;4992417;28;19971;-71
2023/11/24 03:46:11;;;;;;;;;;;77.60;2227.20;;;;;;4993666;28;19931;-71
2023/11/24 03:48:37;;;;;;;;;;;77.40;2227.20;;;;;;4993324;28;20056;-72
2023/11/24 03:51:02;;;;;;;;;;;77.40;2227.20;;;;;;4993421;28;19996;-72
2023/11/24 03:53:28;;;;;;;;;;;77.50;2227.20;;;;;;4993537;28;19916;-71
2023/11/24 03:55:53;;;;;;;;;;;77.60;2227.20;;;;;;4993431;28;20004;-72
2023/11/24 03:58:19;;;;;;;;;;;77.70;2227.20;;;;;;4993539;28;19912;-71
2023/11/24 04:00:44;;;;;;;;;;;102.40;2227.20;;;;;;4993333;28;19914;-72
2023/11/24 04:03:10;;;;;;;;;;;77.70;2227.20;;;;;;4993276;28;19912;-71
2023/11/24 04:05:36;;;;;;;;;;;77.50;2227.20;;;;;;4993372;28;19906;-71
2023/11/24 04:08:01;;;;;;;;;;;77.60;2227.20;;;;;;4993434;28;20382;-72
2023/11/24 04:10:27;;;;;;;;;;;77.70;2227.20;;;;;;4993479;28;20342;-72
2023/11/24 04:12:53;;;;;;;;;;;102.40;2227.20;;;;;;4993272;28;19905;-71
2023/11/24 04:15:19;;;;;;;;;;;77.60;2227.20;;;;;;4993488;28;20372;-71
2023/11/24 04:17:45;;;;;;;;;;;77.40;2227.20;;;;;;4993149;28;19906;-71
2023/11/24 04:20:10;;;;;;;;;;;77.50;2227.20;;;;;;4992906;28;19925;-72
2023/11/24 04:22:36;;;;;;;;;;;77.50;2227.20;;;;;;4993395;28;19914;-71
2023/11/24 04:25:04;;;;;;;;;;;77.60;2227.20;;;;;;4993352;28;20289;-71
2023/11/24 04:27:30;;;;;;;;;;;77.60;2227.20;;;;;;4993367;28;19906;-72
2023/11/24 04:29:56;;;;;;;;;;;77.70;2227.20;;;;;;4995678;28;20047;-72
2023/11/24 04:32:22;;;;;;;;;;;102.40;2227.20;;;;;;4997010;28;19906;-71
2023/11/24 04:34:47;;;;;;;;;;;102.50;2227.20;;;;;;4996828;28;19910;-74
2023/11/24 04:37:13;;;;;;;;;;;102.60;2227.20;;;;;;4996878;28;19912;-71
2023/11/24 04:39:39;;;;;;;;;;;102.60;2227.20;;;;;;4996765;28;19917;-72
2023/11/24 04:42:06;;;;;;;;;;;102.60;2227.20;;;;;;4996866;28;19910;-71
2023/11/24 04:44:32;;;;;;;;;;;102.70;2227.20;;;;;;4996929;28;19945;-72
2023/11/24 04:46:59;;;;;;;;;;;102.60;2227.20;;;;;;4996692;28;19913;-71
2023/11/24 04:49:25;;;;;;;;;;;102.60;2227.20;;;;;;4996474;28;19956;-72
2023/11/24 04:51:51;;;;;;;;;;;102.70;2227.20;;;;;;4996620;28;19953;-71
2023/11/24 04:54:16;;;;;;;;;;;102.80;2227.20;;;;;;4996697;28;19914;-72
2023/11/24 04:56:42;;;;;;;;;;;102.70;2227.20;;;;;;4996569;28;20395;-71
2023/11/24 04:59:07;;;;;;;;;;;102.70;2227.20;;;;;;4996559;28;19952;-72
2023/11/24 05:01:33;;;;;;;;;;;102.80;2227.20;;;;;;4996184;28;20264;-71
2023/11/24 05:03:59;;;;;;;;;;;102.80;2227.20;;;;;;4996386;28;19996;-71
2023/11/24 05:06:25;;;;;;;;;;;102.90;2227.20;;;;;;4978919;28;19906;-70
2023/11/24 05:08:51;;;;;;;;;;;102.90;2227.20;;;;;;4996473;28;20257;-72
2023/11/24 05:11:17;;;;;;;;;;;102.90;2227.20;;;;;;4996272;28;19905;-71
2023/11/24 05:13:42;;;;;;;;;;;102.80;2227.20;;;;;;4996203;28;19984;-71
2023/11/24 05:16:08;;;;;;;;;;;102.70;2227.20;;;;;;4996322;28;20348;-71
2023/11/24 05:18:33;;;;;;;;;;;102.50;2227.20;;;;;;4996137;28;20283;-72
2023/11/24 05:20:59;;;;;;;;;;;102.50;2227.20;;;;;;4995659;28;19917;-71
2023/11/24 05:23:25;;;;;;;;;;;102.40;2227.20;;;;;;4996163;28;19916;-71
2023/11/24 05:25:51;;;;;;;;;;;77.70;2227.20;;;;;;4996003;28;19905;-74
2023/11/24 05:28:17;;;;;;;;;;;102.40;2227.20;;;;;;4995990;28;19929;-74
2023/11/24 05:30:43;;;;;;;;;;;102.40;2227.20;;;;;;4995878;28;20000;-71
2023/11/24 05:33:08;;;;;;;;;;;102.50;2227.20;;;;;;4995861;28;19948;-74
2023/11/24 05:35:34;;;;;;;;;;;102.50;2227.20;;;;;;4995826;28;19906;-73
2023/11/24 05:37:59;;;;;;;;;;;102.50;2227.20;;;;;;4995776;28;19925;-71
2023/11/24 05:40:25;;;;;;;;;;;102.50;2227.20;;;;;;4995736;28;20368;-74
2023/11/24 05:42:50;;;;;;;;;;;102.40;2227.20;;;;;;4995750;28;19910;-71
2023/11/24 05:45:16;;;;;;;;;;;102.60;2227.20;;;;;;4995679;28;19956;-72
2023/11/24 05:47:42;;;;;;;;;;;102.70;2227.20;;;;;;4995513;28;19905;-71
2023/11/24 05:50:08;;;;;;;;;;;102.80;2227.20;;;;;;4995419;28;20322;-71
2023/11/24 05:52:33;;;;;;;;;;;102.60;2227.20;;;;;;4995525;28;19949;-71
2023/11/24 05:55:00;;;;;;;;;;;102.60;2227.20;;;;;;4994302;28;20391;-72
2023/11/24 05:57:27;;;;;;;;;;;102.80;2227.20;;;;;;4995542;28;20268;-72
2023/11/24 05:59:52;;;;;;;;;;;102.80;2227.20;;;;;;4995266;28;20261;-71
2023/11/24 06:02:18;;;;;;;;;;;102.70;2227.20;;;;;;4995314;28;19993;-71
2023/11/24 06:04:43;;;;;;;;;;;77.70;2227.20;;;;;;4995145;28;19929;-72
2023/11/24 06:07:09;;;;;;;;;;;77.70;2227.20;;;;;;4995208;28;19999;-72
2023/11/24 06:09:34;;;;;;;;;;;102.50;2227.20;;;;;;4995225;28;19913;-73
2023/11/24 06:12:01;;;;;;;;;;;102.50;2227.20;;;;;;4994606;28;20171;-72
2023/11/24 06:14:26;;;;;;;;;;;102.60;2227.20;;;;;;4994993;28;19931;-72
2023/11/24 06:16:52;;;;;;;;;;;102.70;2227.20;;;;;;4990158;28;19913;-71
2023/11/24 06:19:18;;;;;;;;;;;102.80;2227.20;;;;;;4988433;28;20287;-72
2023/11/24 06:21:44;;;;;;;;;;;102.60;2227.20;;;;;;4990459;28;19976;-72
2023/11/24 06:24:09;;;;;;;;;;;102.50;2227.20;;;;;;4985369;28;19941;-73
2023/11/24 06:26:35;;;;;;;;;;;102.60;2227.20;;;;;;4986248;28;19912;-72
2023/11/24 06:29:00;;;;;;;;;;;102.80;2227.20;;;;;;4987191;28;19953;-72
2023/11/24 06:31:26;;;;;;;;;;;102.90;2227.20;;;;;;4988229;28;19989;-71
2023/11/24 06:33:51;;;;;;;;;;;102.90;2227.20;;;;;;4993123;28;19992;-71
2023/11/24 06:36:17;;;;;;;;;;;102.80;2227.20;;;;;;4988914;28;19909;-71
2023/11/24 06:38:43;;;;;;;;;;;102.90;2227.20;;;;;;4992711;28;19906;-72
2023/11/24 06:41:08;;;;;;;;;;;103.10;2227.20;;;;;;4989814;28;20424;-70
2023/11/24 06:43:34;;;;;;;;;;;103.20;2227.20;;;;;;4989997;28;19913;-72
2023/11/24 06:46:05;;;;;;;;;;;103.10;2227.20;;;;;;4989994;28;20284;-72
2023/11/24 06:48:31;;;;;;;;;;;103.20;2227.20;;;;;;4988789;28;20318;-72
2023/11/24 06:50:58;;;;;;;;;;;103.30;2227.20;;;;;;4988610;28;19960;-71
2023/11/24 06:53:23;;;;;;;;;;;128.10;2252.80;;;;;;4988287;28;19917;-72
2023/11/24 06:55:49;;;;;;;;;;;128.20;2252.80;;;;;;4991132;28;19906;-75
2023/11/24 06:58:15;;;;;;;;;;;128.20;2252.80;;;;;;4986540;28;19905;-73
2023/11/24 07:00:40;;;;;;;;;;;128.20;2252.80;;;;;;4992945;28;19925;-73
2023/11/24 07:03:06;;;;;;;;;;;128.30;2252.80;;;;;;4986303;28;20005;-75
2023/11/24 07:05:31;;;;;;;;;;;128.20;2252.80;;;;;;4992415;28;20364;-75
2023/11/24 07:07:57;;;;;;;;;;;128.10;2252.80;;;;;;4989825;28;19910;-75
2023/11/24 07:10:26;;;;;;;;;;;103.20;2227.20;;;;;;4985805;28;19953;-76
2023/11/24 07:12:52;;;;;;;;;;;103.20;2227.20;;;;;;4972760;28;19910;-75
2023/11/24 07:15:18;;;;;;;;;;;103.00;2227.20;;;;;;4990850;28;19957;-76
2023/11/24 07:17:44;;;;;;;;;;;103.00;2227.20;;;;;;4988436;28;19910;-75
2023/11/24 07:20:12;;;;;;;;;;;103.30;2227.20;;;;;;4991755;28;20319;-74
2023/11/24 07:22:39;;;;;;;;;;;128.10;2252.80;;;;;;4987644;28;20384;-73
2023/11/24 07:25:06;;;;;;;;;;;128.20;2252.80;;;;;;4993771;28;19965;-75
2023/11/24 07:27:31;;;;;;;;;;;103.10;2227.20;;;;;;4974247;28;19913;-75
2023/11/24 07:29:57;;;;;;;;;;;128.40;2252.80;;;;;;4989336;28;19909;-75
2023/11/24 07:32:27;;;;;;;;;;;128.60;2252.80;;;;;;4989267;28;20310;-75
2023/11/24 07:34:52;;;;;;;;;;;128.60;2252.80;;;;;;4975644;28;20311;-74
2023/11/24 07:37:18;;;;;;;;;;;128.70;2252.80;;;;;;4991738;28;19914;-74
2023/11/24 07:39:43;;;;;;;;;;;128.80;2252.80;;;;;;4990739;28;20276;-75
2023/11/24 07:42:09;;;;;;;;;;;128.90;2252.80;;;;;;4986573;28;20008;-75
2023/11/24 07:44:35;;;;;;;;;;;153.60;2252.80;;;;;;4993661;28;19910;-74
2023/11/24 07:47:01;;;;;;;;;;;128.90;2252.80;;;;;;4986069;28;19906;-75
2023/11/24 07:49:26;;;;;;;;;;;153.70;2252.80;;;;;;4988789;28;19937;-76
2023/11/24 07:51:52;;;;;;;;;;;153.70;2252.80;;;;;;4966731;28;20000;-74
2023/11/24 07:54:18;;;;;;;;;;;153.80;2252.80;;;;;;4986109;28;19910;-77
2023/11/24 07:56:43;;;;;;;;;;;153.80;2252.80;;;;;;4972820;28;19905;-75
2023/11/24 07:59:12;;;;;;;;;;;153.80;2252.80;;;;;;4981756;28;20348;-74
2023/11/24 08:01:41;;;;;;;;;;;153.70;2252.80;;;;;;4985100;28;19917;-74
2023/11/24 08:04:07;;;;;;;;;;;153.80;2252.80;;;;;;4977476;28;19945;-75
2023/11/24 08:06:33;;;;;;;;;;;153.80;2252.80;;;;;;4991583;28;20283;-75
2023/11/24 08:09:01;;;;;;;;;;;128.90;2252.80;;;;;;4968793;28;20004;-75
2023/11/24 08:11:26;;;;;;;;;;;153.60;2252.80;;;;;;4989936;28;19905;-75
2023/11/24 08:13:53;;;;;;;;;;;153.70;2252.80;;;;;;4988176;28;19953;-74
2023/11/24 08:16:19;;;;;;;;;;;154.10;2252.80;;;;;;4997574;28;19912;-75
2023/11/24 08:18:45;;;;;;;;;;;154.20;2252.80;;;;;;4995220;28;19937;-74
2023/11/24 08:21:11;;;;;;;;;;;154.10;2252.80;;;;;;4989966;28;19917;-75
2023/11/24 08:23:36;;;;;;;;;;;154.40;2252.80;;;;;;4992398;28;20280;-75
2023/11/24 08:26:05;;;;;;;;;;;154.50;2252.80;;;;;;4997123;28;20001;-76
2023/11/24 08:28:31;;;;;;;;;;;179.20;2252.80;;;;;;4993736;28;19964;-75
2023/11/24 08:30:56;;;;;;;;;;;179.30;2252.80;;;;;;4989218;28;19910;-75
2023/11/24 08:33:22;;;;;;;;;;;179.40;2252.80;;;;;;4992840;28;20360;-75
2023/11/24 08:35:48;;;;;;;;;;;179.30;2252.80;;;;;;4989901;28;20267;-75
2023/11/24 08:38:13;;;;;;;;;;;179.30;2252.80;;;;;;4990243;28;19906;-74
2023/11/24 08:40:39;;;;;;;;;;;179.40;2252.80;;;;;;4994356;28;20026;-75
2023/11/24 08:43:05;;;;;;;;;;;179.50;2252.80;;;;;;4989370;28;19989;-74
2023/11/24 08:45:33;;;;;;;;;;;179.50;2252.80;;;;;;4993283;28;19949;-73
2023/11/24 08:47:58;;;;;;;;;;;179.60;2252.80;;;;;;4991270;28;20443;-78
2023/11/24 08:50:24;;;;;;;;;;;179.70;2252.80;;;;;;4994185;28;19961;-74
2023/11/24 08:52:52;;;;;;;;;;;180.00;2252.80;;;;;;4993453;28;20278;-73
2023/11/24 08:55:17;;;;;;;;;;;204.80;2252.80;;;;;;4978220;28;20038;-74
2023/11/24 08:57:44;;;;;;;;;;;205.10;2252.80;;;;;;4991737;28;19913;-75
2023/11/24 09:00:11;;;;;;;;;;;205.20;2252.80;;;;;;4994656;28;19914;-75
2023/11/24 09:02:37;;;;;;;;;;;205.20;2252.80;;;;;;4967205;28;19906;-75
2023/11/24 09:05:04;;;;;;;;;;;205.60;2252.80;;;;;;4994701;28;19993;-75
2023/11/24 09:07:29;;;;;;;;;;;205.10;2252.80;;;;;;4991095;28;19913;-75
2023/11/24 09:09:56;;;;;;;;;;;204.90;2252.80;;;;;;4972862;28;20379;-75
2023/11/24 09:12:22;;;;;;;;;;;204.80;2252.80;;;;;;4973495;28;19905;-75
2023/11/24 09:14:48;;;;;;;;;;;205.00;2252.80;;;;;;4972737;28;19977;-74
2023/11/24 09:17:13;;;;;;;;;;;205.20;2252.80;;;;;;4994283;28;19913;-74
2023/11/24 09:19:39;;;;;;;;;;;205.40;2252.80;;;;;;4976724;28;19906;-74
2023/11/24 09:22:06;;;;;;;;;;;205.70;2252.80;;;;;;4991050;28;19922;-74
2023/11/24 09:24:32;;;;;;;;;;;230.40;2252.80;;;;;;4986863;28;20005;-74
2023/11/24 09:26:58;;;;;;;;;;;230.40;2252.80;;;;;;4977068;28;21651;-74
2023/11/24 09:29:25;;;;;;;;;;;230.60;2252.80;;;;;;4989609;28;19917;-74
2023/11/24 09:31:51;;;;;;;;;;;231.00;2252.80;;;;;;4988435;28;19905;-74
2023/11/24 09:34:17;;;;;;;;;;;231.30;2252.80;;;;;;4990480;28;19916;-73
2023/11/24 09:36:42;;;;;;;;;;;231.20;2252.80;;;;;;4987781;28;19909;-75
2023/11/24 09:39:08;;;;;;;;;;;231.30;2252.80;;;;;;4983787;28;20339;-74
2023/11/24 09:41:38;;;;;;;;;;;256.50;2252.80;;;;;;4986064;28;19918;-74
2023/11/24 09:44:04;;;;;;;;;;;281.60;2278.40;;;;;;4994083;28;19906;-75
2023/11/24 09:46:29;;;;;;;;;;;256.90;2252.80;;;;;;4991322;28;19917;-74
2023/11/24 09:48:55;;;;;;;;;;;282.00;2278.40;;;;;;4978137;28;19906;-75
2023/11/24 09:51:22;;;;;;;;;;;282.40;2278.40;;;;;;4970316;28;19964;-74
2023/11/24 09:53:50;;;;;;;;;;;307.50;2304.00;;;;;;4987986;28;19910;-75
2023/11/24 09:56:17;;;;;;;;;;;307.60;2304.00;;;;;;4984268;28;19968;-74
2023/11/24 09:58:43;;;;;;;;;;;332.90;2329.60;;;;;;4976625;28;19959;-73
2023/11/24 10:01:12;;;;;;;;;;;332.90;2329.60;;;;;;4986706;28;20331;-74
2023/11/24 10:03:39;;;;;;;;;;;333.20;2329.60;;;;;;4995451;28;20371;-74
2023/11/24 10:06:08;;;;;;;;;;;333.60;2329.60;;;;;;4989418;28;19949;-75
2023/11/24 10:08:37;;;;;;;;;;;333.20;2329.60;;;;;;4992058;28;19905;-75
2023/11/24 10:11:16;;;;;;;;;;;333.20;2329.60;;;;;;4984317;28;20000;-75
2023/11/24 10:13:43;;;;;;;;;;;333.00;2329.60;;;;;;4986888;28;20356;-74
2023/11/24 10:16:10;;;;;;;;;;;308.10;2304.00;;;;;;4992163;28;19906;-75
2023/11/24 10:18:36;;;;;;;;;;;308.10;2304.00;;;;;;4993267;28;19906;-74
2023/11/24 10:21:02;;;;;;;;;;;307.90;2304.00;;;;;;4987543;28;20364;-75
2023/11/24 10:23:29;;;;;;;;;;;307.60;2304.00;;;;;;4989457;28;19914;-74
2023/11/24 10:25:56;;;;;;;;;;;307.30;2304.00;;;;;;4992792;28;19905;-75
2023/11/24 10:28:21;;;;;;;;;;;307.40;2304.00;;;;;;4976846;28;20343;-74
2023/11/24 10:30:47;;;;;;;;;;;307.30;2304.00;;;;;;4969730;28;19953;-75
2023/11/24 10:33:17;;;;;;;;;;;307.60;2304.00;;;;;;4989419;28;19914;-75
2023/11/24 10:35:46;;;;;;;;;;;307.70;2304.00;;;;;;4973713;28;19906;-75
2023/11/24 10:38:22;;;;;;;;;;;307.90;2304.00;;;;;;4988227;28;19912;-74
2023/11/24 10:40:51;;;;;;;;;;;332.90;2329.60;;;;;;4991434;28;20020;-74
2023/11/24 10:43:19;;;;;;;;;;;333.20;2329.60;;;;;;4986086;28;19910;-74
2023/11/24 10:45:48;;;;;;;;;;;333.40;2329.60;;;;;;4992387;28;19932;-74
2023/11/24 10:48:14;;;;;;;;;;;358.40;2329.60;;;;;;4989059;28;19925;-73
2023/11/24 10:50:41;;;;;;;;;;;358.40;2329.60;;;;;;4991083;28;19910;-74
2023/11/24 10:53:28;;;;;;;;;;;358.40;2329.60;;;;;;4983467;28;19914;-72
2023/11/24 10:55:56;;;;;;;;;;;358.60;2329.60;;;;;;4985276;28;19906;-74
2023/11/24 10:58:23;;;;;;;;;;;358.80;2329.60;;;;;;4971798;28;20280;-74
2023/11/24 11:00:49;;;;;;;;;;;359.20;2329.60;;;;;;4982630;28;19917;-74
2023/11/24 11:03:15;;;;;;;;;;;359.30;2329.60;;;;;;4992271;28;20426;-74
2023/11/24 11:05:41;;;;;;;;;;;384.00;2329.60;;;;;;4992354;28;19914;-74
2023/11/24 11:08:17;;;;;;;;;;;359.30;2329.60;;;;;;4990738;28;20375;-74
2023/11/24 11:10:45;;;;;;;;;;;359.20;2329.60;;;;;;4979648;28;19910;-74
2023/11/24 11:13:12;;;;;;;;;;;384.10;2329.60;;;;;;4989420;28;19906;-74
2023/11/24 11:15:38;;;;;;;;;;;384.00;2329.60;;;;;;4986678;28;19917;-75
2023/11/24 11:18:13;;;;;;;;;;;359.30;2329.60;;;;;;4988053;28;19906;-75
2023/11/24 11:20:41;;;;;;;;;;;384.00;2329.60;;;;;;4992053;28;20332;-74
2023/11/24 11:23:08;;;;;;;;;;;384.20;2329.60;;;;;;4991909;28;19945;-75
2023/11/24 11:25:35;;;;;;;;;;;384.30;2329.60;;;;;;4994223;28;19906;-76
2023/11/24 11:28:20;;;;;;;;;;;384.40;2329.60;;;;;;4990650;28;20005;-76
2023/11/24 11:30:49;;;;;;;;;;;384.30;2329.60;;;;;;4986192;28;19906;-74
2023/11/24 11:33:15;;;;;;;;;;;384.10;2329.60;;;;;;4990732;28;19906;-74
2023/11/24 11:35:41;;;;;;;;;;;359.20;2329.60;;;;;;4986231;28;19917;-75
2023/11/24 11:38:13;;;;;;;;;;;359.30;2329.60;;;;;;4991636;28;19906;-78
2023/11/24 11:40:44;;;;;;;;;;;359.20;2329.60;;;;;;4984529;28;19944;-76
2023/11/24 11:43:15;;;;;;;;;;;359.10;2329.60;;;;;;4986133;28;19913;-76
2023/11/24 11:45:48;;;;;;;;;;;358.80;2329.60;;;;;;4970263;28;20002;-76
2023/11/24 11:48:14;;;;;;;;;;;358.50;2329.60;;;;;;4964176;28;20423;-75
2023/11/24 11:50:56;;;;;;;;;;;358.40;2329.60;;;;;;4990294;28;20008;-75
2023/11/24 11:53:25;;;;;;;;;;;358.40;2329.60;;;;;;4967236;28;19913;-76
2023/11/24 11:55:53;;;;;;;;;;;333.60;2329.60;;;;;;4990287;28;19905;-75
2023/11/24 11:58:19;;;;;;;;;;;333.40;2329.60;;;;;;4984978;28;20004;-76
2023/11/24 12:00:48;;;;;;;;;;;333.40;2329.60;;;;;;4979108;28;20342;-74
2023/11/24 12:03:14;;;;;;;;;;;333.40;2329.60;;;;;;4969418;28;19992;-75
2023/11/24 12:05:40;;;;;;;;;;;333.40;2329.60;;;;;;4988342;28;20364;-75
2023/11/24 12:08:06;;;;;;;;;;;333.30;2329.60;;;;;;4991623;28;19906;-74
2023/11/24 12:10:32;;;;;;;;;;;333.10;2329.60;;;;;;4991503;28;20280;-75
2023/11/24 12:13:03;;;;;;;;;;;333.00;2329.60;;;;;;4986338;28;21568;-74
2023/11/24 12:15:29;;;;;;;;;;;332.90;2329.60;;;;;;4989438;28;19910;-75
2023/11/24 12:17:56;;;;;;;;;;;308.00;2304.00;;;;;;4988631;28;19913;-76
2023/11/24 12:20:23;;;;;;;;;;;307.90;2304.00;;;;;;4985123;28;20403;-75
2023/11/24 12:22:48;;;;;;;;;;;307.70;2304.00;;;;;;4990724;28;20367;-75
2023/11/24 12:25:14;;;;;;;;;;;307.70;2304.00;;;;;;4960218;28;19913;-76
2023/11/24 12:27:43;;;;;;;;;;;307.40;2304.00;;;;;;4974269;28;19906;-75
2023/11/24 12:30:10;;;;;;;;;;;307.30;2304.00;;;;;;4980902;28;19949;-74
2023/11/24 12:32:37;;;;;;;;;;;307.30;2304.00;;;;;;4969667;28;19940;-75
2023/11/24 12:35:06;;;;;;;;;;;307.30;2304.00;;;;;;4989633;28;19917;-76
2023/11/24 12:37:32;;;;;;;;;;;307.20;2304.00;;;;;;4971492;28;20063;-75
2023/11/24 12:39:58;;;;;;;;;;;282.50;2278.40;;;;;;4975510;28;20012;-75
2023/11/24 12:42:23;;;;;;;;;;;307.20;2304.00;;;;;;4986884;28;19933;-75
2023/11/24 12:44:50;;;;;;;;;;;282.50;2278.40;;;;;;4991307;28;20034;-75
2023/11/24 12:47:18;;;;;;;;;;;282.50;2278.40;;;;;;4990677;28;20283;-75
2023/11/24 12:49:56;;;;;;;;;;;282.50;2278.40;;;;;;4983490;28;19910;-74
2023/11/24 12:52:23;;;;;;;;;;;282.50;2278.40;;;;;;4969820;28;19926;-74
2023/11/24 12:54:49;;;;;;;;;;;;;;;;;;4989281;28;19906;-74
2023/11/24 12:57:15;;;;;;;;;;;307.20;2304.00;;;;;;4993746;28;19906;-73
2023/11/24 12:59:40;;;;;;;;;;;282.50;2278.40;;;;;;4990651;28;19933;-75
2023/11/24 13:02:06;;;;;;;;;;;282.50;2278.40;;;;;;4990652;28;19984;-74
2023/11/24 13:04:31;;;;;;;;;;;282.50;2278.40;;;;;;4997055;28;19913;-74
2023/11/24 13:06:58;;;;;;;;;;;307.20;2304.00;;;;;;4990316;28;19957;-75
2023/11/24 13:09:28;;;;;;;;;;;;;;;;;;4987006;28;19906;-75
2023/11/24 13:11:53;;;;;;;;;;;307.20;2304.00;;;;;;4974996;28;19905;-74
2023/11/24 13:14:22;;;;;;;;;;;282.40;2278.40;;;;;;4990481;28;19988;-76
2023/11/24 13:16:51;;;;;;;;;;;282.50;2278.40;;;;;;4996247;28;20268;-73
2023/11/24 13:19:18;;;;;;;;;;;282.40;2278.40;;;;;;4993362;28;19921;-74
2023/11/24 13:21:45;;;;;;;;;;;282.40;2278.40;;;;;;4990160;28;19939;-74
2023/11/24 13:24:11;;;;;;;;;;;282.40;2278.40;;;;;;4989503;28;20283;-73
2023/11/24 13:26:37;;;;;;;;;;;282.30;2278.40;;;;;;4996446;28;19909;-75
2023/11/24 13:29:04;;;;;;;;;;;282.10;2278.40;;;;;;4977562;28;19909;-74
2023/11/24 13:31:29;;;;;;;;;;;282.10;2278.40;;;;;;4990715;28;20279;-74
2023/11/24 13:33:55;;;;;;;;;;;282.10;2278.40;;;;;;4993122;28;19906;-75
2023/11/24 13:36:21;;;;;;;;;;;282.10;2278.40;;;;;;4988308;28;19906;-74
2023/11/24 13:38:47;;;;;;;;;;;282.10;2278.40;;;;;;4994204;28;20341;-73
2023/11/24 13:41:13;;;;;;;;;;;282.10;2278.40;;;;;;4993821;28;19972;-73